sensor_id;sensor_type;location;lat;lon;timestamp;pressure;altitude;pressure_sealevel;temperature;humidity
74544;BME280;63016;55.030;38.710;2023-04-25T00:02:20;99900.09;;;13.82;35.04
74544;BME280;63016;55.030;38.710;2023-04-25T00:04:47;99883.50;;;13.75;34.57
74544;BME280;63016;55.030;38.710;2023-04-25T00:07:14;99897.75;;;13.72;34.84
74544;BME280;63016;55.030;38.710;2023-04-25T00:09:41;99877.66;;;13.58;34.81
74544;BME280;63016;55.030;38.710;2023-04-25T00:12:06;99892.22;;;13.60;34.78
74544;BME280;63016;55.030;38.710;2023-04-25T00:14:32;99885.91;;;13.55;34.83
74544;BME280;63016;55.030;38.710;2023-04-25T00:17:01;99898.34;;;13.53;34.68
74544;BME280;63016;55.030;38.710;2023-04-25T00:19:28;99888.97;;;13.44;34.87
74544;BME280;63016;55.030;38.710;2023-04-25T00:21:54;99893.41;;;13.43;34.88
74544;BME280;63016;55.030;38.710;2023-04-25T00:24:20;99881.59;;;13.32;34.95
74544;BME280;63016;55.030;38.710;2023-04-25T00:26:46;99891.06;;;13.33;35.01
74544;BME280;63016;55.030;38.710;2023-04-25T00:29:11;99885.78;;;13.27;34.84
74544;BME280;63016;55.030;38.710;2023-04-25T00:31:37;99891.00;;;13.27;35.03
74544;BME280;63016;55.030;38.710;2023-04-25T00:34:02;99887.28;;;13.21;35.16
74544;BME280;63016;55.030;38.710;2023-04-25T00:36:28;99885.41;;;13.15;34.99
74544;BME280;63016;55.030;38.710;2023-04-25T00:38:53;99880.44;;;13.05;34.92
74544;BME280;63016;55.030;38.710;2023-04-25T00:41:20;99879.19;;;13.01;34.91
74544;BME280;63016;55.030;38.710;2023-04-25T00:43:47;99877.91;;;12.97;35.21
74544;BME280;63016;55.030;38.710;2023-04-25T00:46:13;99884.31;;;12.95;35.03
74544;BME280;63016;55.030;38.710;2023-04-25T00:48:38;99884.03;;;12.90;35.15
74544;BME280;63016;55.030;38.710;2023-04-25T00:51:04;99876.09;;;12.83;35.16
74544;BME280;63016;55.030;38.710;2023-04-25T00:53:30;99880.06;;;12.79;35.23
74544;BME280;63016;55.030;38.710;2023-04-25T00:55:57;99880.78;;;12.73;35.19
74544;BME280;63016;55.030;38.710;2023-04-25T00:58:23;99876.63;;;12.64;35.19
74544;BME280;63016;55.030;38.710;2023-04-25T01:00:51;99883.22;;;12.59;35.52
74544;BME280;63016;55.030;38.710;2023-04-25T01:03:20;99888.16;;;12.54;35.44
74544;BME280;63016;55.030;38.710;2023-04-25T01:05:46;99893.47;;;12.46;35.26
74544;BME280;63016;55.030;38.710;2023-04-25T01:08:13;99886.69;;;12.37;35.48
74544;BME280;63016;55.030;38.710;2023-04-25T01:10:39;99889.47;;;12.35;35.57
74544;BME280;63016;55.030;38.710;2023-04-25T01:13:04;99888.38;;;12.30;35.59
74544;BME280;63016;55.030;38.710;2023-04-25T01:15:30;99880.25;;;12.25;35.44
74544;BME280;63016;55.030;38.710;2023-04-25T01:17:57;99873.75;;;12.21;35.83
74544;BME280;63016;55.030;38.710;2023-04-25T01:20:23;99877.06;;;12.15;35.75
74544;BME280;63016;55.030;38.710;2023-04-25T01:22:51;99867.28;;;12.08;36.08
74544;BME280;63016;55.030;38.710;2023-04-25T01:25:18;99882.19;;;12.08;35.59
74544;BME280;63016;55.030;38.710;2023-04-25T01:27:44;99886.97;;;12.04;35.63
74544;BME280;63016;55.030;38.710;2023-04-25T01:30:10;99872.13;;;11.97;36.07
74544;BME280;63016;55.030;38.710;2023-04-25T01:32:36;99888.53;;;11.91;35.92
74544;BME280;63016;55.030;38.710;2023-04-25T01:35:06;99884.81;;;11.85;35.83
74544;BME280;63016;55.030;38.710;2023-04-25T01:37:39;99882.69;;;11.80;35.58
74544;BME280;63016;55.030;38.710;2023-04-25T01:40:05;99880.75;;;11.74;35.95
74544;BME280;63016;55.030;38.710;2023-04-25T01:42:32;99875.22;;;11.69;35.98
74544;BME280;63016;55.030;38.710;2023-04-25T01:44:59;99882.97;;;11.63;35.96
74544;BME280;63016;55.030;38.710;2023-04-25T01:47:24;99880.03;;;11.57;36.17
74544;BME280;63016;55.030;38.710;2023-04-25T01:49:50;99884.97;;;11.52;35.74
74544;BME280;63016;55.030;38.710;2023-04-25T01:52:16;99885.50;;;11.48;35.68
74544;BME280;63016;55.030;38.710;2023-04-25T01:54:41;99883.38;;;11.43;35.87
74544;BME280;63016;55.030;38.710;2023-04-25T01:57:12;99873.63;;;11.37;36.45
74544;BME280;63016;55.030;38.710;2023-04-25T01:59:38;99868.25;;;11.30;36.87
74544;BME280;63016;55.030;38.710;2023-04-25T02:02:04;99879.50;;;11.31;35.96
74544;BME280;63016;55.030;38.710;2023-04-25T02:04:30;99879.22;;;11.26;36.02
74544;BME280;63016;55.030;38.710;2023-04-25T02:06:56;99876.31;;;11.21;36.78
74544;BME280;63016;55.030;38.710;2023-04-25T02:09:21;99866.88;;;11.12;36.03
74544;BME280;63016;55.030;38.710;2023-04-25T02:11:48;99875.69;;;11.11;36.59
74544;BME280;63016;55.030;38.710;2023-04-25T02:14:13;99871.47;;;11.01;36.42
74544;BME280;63016;55.030;38.710;2023-04-25T02:16:39;99875.06;;;11.00;35.98
74544;BME280;63016;55.030;38.710;2023-04-25T02:19:05;99873.31;;;10.93;36.55
74544;BME280;63016;55.030;38.710;2023-04-25T02:21:31;99880.31;;;10.92;36.59
74544;BME280;63016;55.030;38.710;2023-04-25T02:23:57;99883.44;;;10.88;36.36
74544;BME280;63016;55.030;38.710;2023-04-25T02:26:23;99874.47;;;10.82;36.82
74544;BME280;63016;55.030;38.710;2023-04-25T02:28:49;99875.78;;;10.78;36.61
74544;BME280;63016;55.030;38.710;2023-04-25T02:31:15;99873.19;;;10.78;36.73
74544;BME280;63016;55.030;38.710;2023-04-25T02:33:41;99875.47;;;10.73;36.37
74544;BME280;63016;55.030;38.710;2023-04-25T02:36:07;99875.66;;;10.71;37.33
74544;BME280;63016;55.030;38.710;2023-04-25T02:38:33;99870.75;;;10.68;36.99
74544;BME280;63016;55.030;38.710;2023-04-25T02:40:58;99876.97;;;10.67;36.76
74544;BME280;63016;55.030;38.710;2023-04-25T02:43:24;99869.31;;;10.66;36.77
74544;BME280;63016;55.030;38.710;2023-04-25T02:45:49;99861.16;;;10.61;37.17
74544;BME280;63016;55.030;38.710;2023-04-25T02:48:15;99867.84;;;10.63;37.24
74544;BME280;63016;55.030;38.710;2023-04-25T02:50:40;99865.22;;;10.63;37.41
74544;BME280;63016;55.030;38.710;2023-04-25T02:53:06;99869.63;;;10.63;37.88
74544;BME280;63016;55.030;38.710;2023-04-25T02:55:31;99869.00;;;10.61;37.34
74544;BME280;63016;55.030;38.710;2023-04-25T02:57:57;99863.78;;;10.61;37.18
74544;BME280;63016;55.030;38.710;2023-04-25T03:00:22;99859.53;;;10.60;37.20
74544;BME280;63016;55.030;38.710;2023-04-25T03:02:48;99867.69;;;10.65;37.39
74544;BME280;63016;55.030;38.710;2023-04-25T03:05:13;99865.88;;;10.65;37.60
74544;BME280;63016;55.030;38.710;2023-04-25T03:07:39;99861.00;;;10.62;37.80
74544;BME280;63016;55.030;38.710;2023-04-25T03:10:08;99868.31;;;10.67;37.76
74544;BME280;63016;55.030;38.710;2023-04-25T03:12:33;99853.00;;;10.64;38.39
74544;BME280;63016;55.030;38.710;2023-04-25T03:14:59;99856.56;;;10.71;37.94
74544;BME280;63016;55.030;38.710;2023-04-25T03:17:24;99857.06;;;10.74;37.91
74544;BME280;63016;55.030;38.710;2023-04-25T03:19:50;99855.25;;;10.75;38.12
74544;BME280;63016;55.030;38.710;2023-04-25T03:22:15;99863.06;;;10.83;38.72
74544;BME280;63016;55.030;38.710;2023-04-25T03:24:41;99859.31;;;10.86;37.89
74544;BME280;63016;55.030;38.710;2023-04-25T03:27:06;99857.00;;;10.91;38.25
74544;BME280;63016;55.030;38.710;2023-04-25T03:29:31;99865.31;;;10.94;38.44
74544;BME280;63016;55.030;38.710;2023-04-25T03:31:57;99870.16;;;11.05;38.40
74544;BME280;63016;55.030;38.710;2023-04-25T03:34:22;99867.53;;;11.14;38.22
74544;BME280;63016;55.030;38.710;2023-04-25T03:36:49;99866.50;;;11.23;38.81
74544;BME280;63016;55.030;38.710;2023-04-25T03:39:15;99864.69;;;11.31;39.02
74544;BME280;63016;55.030;38.710;2023-04-25T03:41:41;99877.34;;;11.43;38.71
74544;BME280;63016;55.030;38.710;2023-04-25T03:44:06;99882.00;;;11.55;38.91
74544;BME280;63016;55.030;38.710;2023-04-25T03:46:31;99880.63;;;11.68;39.11
74544;BME280;63016;55.030;38.710;2023-04-25T03:48:57;99881.22;;;11.78;38.99
74544;BME280;63016;55.030;38.710;2023-04-25T03:51:22;99890.78;;;11.94;39.01
74544;BME280;63016;55.030;38.710;2023-04-25T03:53:48;99876.50;;;12.04;39.37
74544;BME280;63016;55.030;38.710;2023-04-25T03:56:13;99868.84;;;12.18;39.54
74544;BME280;63016;55.030;38.710;2023-04-25T03:58:39;99874.13;;;12.32;39.74
74544;BME280;63016;55.030;38.710;2023-04-25T04:01:04;99867.69;;;12.43;39.49
74544;BME280;63016;55.030;38.710;2023-04-25T04:03:36;99873.00;;;12.65;39.05
74544;BME280;63016;55.030;38.710;2023-04-25T04:06:03;99856.59;;;12.71;39.43
74544;BME280;63016;55.030;38.710;2023-04-25T04:08:29;99871.84;;;12.97;39.67
74544;BME280;63016;55.030;38.710;2023-04-25T04:10:56;99872.47;;;13.13;39.65
74544;BME280;63016;55.030;38.710;2023-04-25T04:13:22;99869.03;;;13.28;39.91
74544;BME280;63016;55.030;38.710;2023-04-25T04:15:47;99866.66;;;13.48;39.51
74544;BME280;63016;55.030;38.710;2023-04-25T04:18:13;99856.13;;;13.62;39.70
74544;BME280;63016;55.030;38.710;2023-04-25T04:20:38;99856.72;;;13.79;39.66
74544;BME280;63016;55.030;38.710;2023-04-25T04:23:04;99858.88;;;13.97;39.46
74544;BME280;63016;55.030;38.710;2023-04-25T04:25:30;99851.56;;;14.14;39.57
74544;BME280;63016;55.030;38.710;2023-04-25T04:27:56;99838.97;;;14.31;39.70
74544;BME280;63016;55.030;38.710;2023-04-25T04:30:23;99822.69;;;14.42;39.82
74544;BME280;63016;55.030;38.710;2023-04-25T04:32:55;99829.91;;;14.61;39.55
74544;BME280;63016;55.030;38.710;2023-04-25T04:35:21;99826.38;;;14.82;39.83
74544;BME280;63016;55.030;38.710;2023-04-25T04:38:05;99822.66;;;15.05;38.84
74544;BME280;63016;55.030;38.710;2023-04-25T04:40:31;99817.25;;;15.20;39.24
74544;BME280;63016;55.030;38.710;2023-04-25T04:42:57;99816.88;;;15.36;39.32
74544;BME280;63016;55.030;38.710;2023-04-25T04:45:23;99814.28;;;15.56;39.51
74544;BME280;63016;55.030;38.710;2023-04-25T04:47:49;99822.25;;;15.76;39.44
74544;BME280;63016;55.030;38.710;2023-04-25T04:50:15;99817.84;;;15.96;39.44
74544;BME280;63016;55.030;38.710;2023-04-25T04:52:41;99810.72;;;16.16;39.38
74544;BME280;63016;55.030;38.710;2023-04-25T04:55:07;99828.75;;;16.39;39.78
74544;BME280;63016;55.030;38.710;2023-04-25T04:57:34;99823.44;;;16.59;39.21
74544;BME280;63016;55.030;38.710;2023-04-25T05:00:00;99833.72;;;16.81;39.30
74544;BME280;63016;55.030;38.710;2023-04-25T05:02:26;99821.91;;;16.96;39.12
74544;BME280;63016;55.030;38.710;2023-04-25T05:04:52;99827.72;;;17.18;39.05
74544;BME280;63016;55.030;38.710;2023-04-25T05:07:18;99834.13;;;17.36;39.39
74544;BME280;63016;55.030;38.710;2023-04-25T05:10:03;99818.78;;;17.58;38.40
74544;BME280;63016;55.030;38.710;2023-04-25T05:12:28;99804.44;;;17.79;39.08
74544;BME280;63016;55.030;38.710;2023-04-25T05:14:54;99808.72;;;18.05;38.81
74544;BME280;63016;55.030;38.710;2023-04-25T05:17:19;99816.03;;;18.28;38.77
74544;BME280;63016;55.030;38.710;2023-04-25T05:19:45;99805.03;;;18.49;38.67
74544;BME280;63016;55.030;38.710;2023-04-25T05:22:11;99806.25;;;18.71;38.80
74544;BME280;63016;55.030;38.710;2023-04-25T05:24:36;99811.88;;;18.93;38.48
74544;BME280;63016;55.030;38.710;2023-04-25T05:27:02;99821.19;;;19.14;38.50
74544;BME280;63016;55.030;38.710;2023-04-25T05:29:27;99830.03;;;19.38;38.42
74544;BME280;63016;55.030;38.710;2023-04-25T05:31:53;99825.47;;;19.57;38.33
74544;BME280;63016;55.030;38.710;2023-04-25T05:34:18;99822.56;;;19.77;38.39
74544;BME280;63016;55.030;38.710;2023-04-25T05:36:44;99826.53;;;19.98;37.86
74544;BME280;63016;55.030;38.710;2023-04-25T05:39:09;99816.06;;;20.15;37.96
74544;BME280;63016;55.030;38.710;2023-04-25T05:41:35;99812.94;;;20.29;37.86
74544;BME280;63016;55.030;38.710;2023-04-25T05:44:01;99827.72;;;20.49;37.83
74544;BME280;63016;55.030;38.710;2023-04-25T05:46:27;99820.09;;;20.64;37.92
74544;BME280;63016;55.030;38.710;2023-04-25T05:48:52;99822.59;;;20.83;37.70
74544;BME280;63016;55.030;38.710;2023-04-25T05:51:18;99828.44;;;20.96;37.47
74544;BME280;63016;55.030;38.710;2023-04-25T05:53:44;99826.56;;;21.09;37.41
74544;BME280;63016;55.030;38.710;2023-04-25T05:56:09;99828.13;;;21.21;37.18
74544;BME280;63016;55.030;38.710;2023-04-25T05:58:35;99827.31;;;21.33;37.33
74544;BME280;63016;55.030;38.710;2023-04-25T06:01:01;99828.06;;;21.45;37.13
74544;BME280;63016;55.030;38.710;2023-04-25T06:03:26;99828.22;;;21.55;37.03
74544;BME280;63016;55.030;38.710;2023-04-25T06:05:51;99825.28;;;21.68;37.09
74544;BME280;63016;55.030;38.710;2023-04-25T06:08:17;99823.34;;;21.80;36.85
74544;BME280;63016;55.030;38.710;2023-04-25T06:10:42;99823.03;;;21.94;36.64
74544;BME280;63016;55.030;38.710;2023-04-25T06:13:08;99818.38;;;22.01;36.51
74544;BME280;63016;55.030;38.710;2023-04-25T06:15:52;99820.16;;;22.12;36.55
74544;BME280;63016;55.030;38.710;2023-04-25T06:18:17;99809.69;;;22.22;36.49
74544;BME280;63016;55.030;38.710;2023-04-25T06:20:43;99817.88;;;22.38;36.36
74544;BME280;63016;55.030;38.710;2023-04-25T06:23:08;99812.69;;;22.48;36.36
74544;BME280;63016;55.030;38.710;2023-04-25T06:25:34;99823.97;;;22.55;36.16
74544;BME280;63016;55.030;38.710;2023-04-25T06:27:59;99811.59;;;22.66;36.30
74544;BME280;63016;55.030;38.710;2023-04-25T06:30:25;99810.44;;;22.78;36.00
74544;BME280;63016;55.030;38.710;2023-04-25T06:32:51;99813.78;;;22.91;35.84
74544;BME280;63016;55.030;38.710;2023-04-25T06:35:35;99810.75;;;23.04;35.75
74544;BME280;63016;55.030;38.710;2023-04-25T06:38:01;99808.78;;;23.16;35.96
74544;BME280;63016;55.030;38.710;2023-04-25T06:40:27;99808.06;;;23.26;35.53
74544;BME280;63016;55.030;38.710;2023-04-25T06:42:52;99806.31;;;23.37;35.60
74544;BME280;63016;55.030;38.710;2023-04-25T06:45:17;99802.94;;;23.46;35.50
74544;BME280;63016;55.030;38.710;2023-04-25T06:47:43;99797.97;;;23.55;35.35
74544;BME280;63016;55.030;38.710;2023-04-25T06:50:09;99792.69;;;23.60;34.81
74544;BME280;63016;55.030;38.710;2023-04-25T06:52:34;99800.75;;;23.65;35.08
74544;BME280;63016;55.030;38.710;2023-04-25T06:55:00;99789.59;;;23.73;35.44
74544;BME280;63016;55.030;38.710;2023-04-25T06:57:25;99787.34;;;23.92;35.34
74544;BME280;63016;55.030;38.710;2023-04-25T06:59:51;99794.38;;;24.03;35.04
74544;BME280;63016;55.030;38.710;2023-04-25T07:02:17;99786.44;;;24.14;35.22
74544;BME280;63016;55.030;38.710;2023-04-25T07:04:42;99777.13;;;24.21;35.14
74544;BME280;63016;55.030;38.710;2023-04-25T07:07:08;99784.94;;;24.33;34.86
74544;BME280;63016;55.030;38.710;2023-04-25T07:09:34;99789.56;;;24.43;34.81
74544;BME280;63016;55.030;38.710;2023-04-25T07:12:00;99783.19;;;24.49;34.99
74544;BME280;63016;55.030;38.710;2023-04-25T07:14:27;99786.69;;;24.59;34.72
74544;BME280;63016;55.030;38.710;2023-04-25T07:16:53;99774.44;;;24.64;34.73
74544;BME280;63016;55.030;38.710;2023-04-25T07:19:18;99780.88;;;24.73;34.84
74544;BME280;63016;55.030;38.710;2023-04-25T07:21:44;99784.66;;;24.77;34.24
74544;BME280;63016;55.030;38.710;2023-04-25T07:24:09;99777.44;;;24.77;34.28
74544;BME280;63016;55.030;38.710;2023-04-25T07:26:35;99777.44;;;24.82;34.47
74544;BME280;63016;55.030;38.710;2023-04-25T07:29:00;99782.00;;;24.87;34.23
74544;BME280;63016;55.030;38.710;2023-04-25T07:31:26;99775.59;;;24.88;34.04
74544;BME280;63016;55.030;38.710;2023-04-25T07:33:52;99773.72;;;24.88;33.98
74544;BME280;63016;55.030;38.710;2023-04-25T07:36:17;99781.75;;;24.94;33.90
74544;BME280;63016;55.030;38.710;2023-04-25T07:38:43;99779.34;;;24.92;33.37
74544;BME280;63016;55.030;38.710;2023-04-25T07:41:08;99776.66;;;24.82;33.50
74544;BME280;63016;55.030;38.710;2023-04-25T07:43:34;99782.50;;;24.79;33.77
74544;BME280;63016;55.030;38.710;2023-04-25T07:45:59;99770.75;;;24.80;34.11
74544;BME280;63016;55.030;38.710;2023-04-25T07:48:25;99781.22;;;24.86;33.64
74544;BME280;63016;55.030;38.710;2023-04-25T07:50:50;99772.63;;;24.79;33.57
74544;BME280;63016;55.030;38.710;2023-04-25T07:53:16;99771.81;;;24.74;33.41
74544;BME280;63016;55.030;38.710;2023-04-25T07:55:42;99776.31;;;24.63;33.58
74544;BME280;63016;55.030;38.710;2023-04-25T07:58:08;99777.41;;;24.67;33.98
74544;BME280;63016;55.030;38.710;2023-04-25T08:00:35;99769.69;;;24.76;33.89
74544;BME280;63016;55.030;38.710;2023-04-25T08:03:00;99775.06;;;24.81;33.36
74544;BME280;63016;55.030;38.710;2023-04-25T08:05:26;99782.78;;;24.77;33.33
74544;BME280;63016;55.030;38.710;2023-04-25T08:07:51;99784.09;;;24.75;33.33
74544;BME280;63016;55.030;38.710;2023-04-25T08:10:17;99780.09;;;24.72;33.25
74544;BME280;63016;55.030;38.710;2023-04-25T08:12:43;99780.59;;;24.64;33.38
74544;BME280;63016;55.030;38.710;2023-04-25T08:15:09;99782.69;;;24.52;32.75
74544;BME280;63016;55.030;38.710;2023-04-25T08:17:34;99770.88;;;24.38;33.23
74544;BME280;63016;55.030;38.710;2023-04-25T08:20:00;99769.75;;;24.33;33.06
74544;BME280;63016;55.030;38.710;2023-04-25T08:22:26;99784.13;;;24.27;33.15
74544;BME280;63016;55.030;38.710;2023-04-25T08:24:51;99776.34;;;24.21;33.20
74544;BME280;63016;55.030;38.710;2023-04-25T08:27:18;99764.31;;;24.13;33.16
74544;BME280;63016;55.030;38.710;2023-04-25T08:29:44;99760.22;;;24.00;33.15
74544;BME280;63016;55.030;38.710;2023-04-25T08:32:09;99760.94;;;23.85;33.16
74544;BME280;63016;55.030;38.710;2023-04-25T08:34:35;99759.31;;;23.79;33.19
74544;BME280;63016;55.030;38.710;2023-04-25T08:37:02;99751.53;;;23.78;33.35
74544;BME280;63016;55.030;38.710;2023-04-25T08:39:29;99747.53;;;23.75;33.56
74544;BME280;63016;55.030;38.710;2023-04-25T08:41:55;99736.34;;;23.78;33.39
74544;BME280;63016;55.030;38.710;2023-04-25T08:44:22;99732.34;;;23.76;33.31
74544;BME280;63016;55.030;38.710;2023-04-25T08:46:48;99738.19;;;23.73;33.58
74544;BME280;63016;55.030;38.710;2023-04-25T08:49:17;99740.09;;;23.77;33.55
74544;BME280;63016;55.030;38.710;2023-04-25T08:51:45;99732.13;;;23.82;33.85
74544;BME280;63016;55.030;38.710;2023-04-25T08:54:15;99725.25;;;23.92;33.35
74544;BME280;63016;55.030;38.710;2023-04-25T08:56:44;99717.81;;;23.94;33.61
74544;BME280;63016;55.030;38.710;2023-04-25T08:59:11;99718.63;;;23.94;33.42
74544;BME280;63016;55.030;38.710;2023-04-25T09:01:37;99718.88;;;23.93;33.31
74544;BME280;63016;55.030;38.710;2023-04-25T09:04:02;99716.72;;;23.90;33.31
74544;BME280;63016;55.030;38.710;2023-04-25T09:06:31;99702.03;;;23.87;33.39
74544;BME280;63016;55.030;38.710;2023-04-25T09:09:03;99708.47;;;23.91;33.45
74544;BME280;63016;55.030;38.710;2023-04-25T09:11:29;99690.13;;;23.95;33.46
74544;BME280;63016;55.030;38.710;2023-04-25T09:14:18;99696.56;;;24.04;33.90
74544;BME280;63016;55.030;38.710;2023-04-25T09:19:30;99679.81;;;24.14;33.25
74544;BME280;63016;55.030;38.710;2023-04-25T09:21:57;99679.53;;;24.15;33.15
74544;BME280;63016;55.030;38.710;2023-04-25T09:24:36;99674.22;;;24.20;33.32
74544;BME280;63016;55.030;38.710;2023-04-25T09:27:07;99681.44;;;24.25;32.92
74544;BME280;63016;55.030;38.710;2023-04-25T09:29:38;99678.00;;;24.29;33.26
74544;BME280;63016;55.030;38.710;2023-04-25T09:32:24;99667.34;;;24.34;33.07
74544;BME280;63016;55.030;38.710;2023-04-25T09:34:51;99660.44;;;24.33;32.76
74544;BME280;63016;55.030;38.710;2023-04-25T09:37:21;99663.41;;;24.37;33.26
74544;BME280;63016;55.030;38.710;2023-04-25T09:39:48;99661.56;;;24.43;32.82
74544;BME280;63016;55.030;38.710;2023-04-25T09:42:15;99655.94;;;24.44;32.79
74544;BME280;63016;55.030;38.710;2023-04-25T09:44:45;99656.22;;;24.43;32.75
74544;BME280;63016;55.030;38.710;2023-04-25T09:47:12;99651.41;;;24.40;32.49
74544;BME280;63016;55.030;38.710;2023-04-25T09:49:41;99643.41;;;24.40;32.99
74544;BME280;63016;55.030;38.710;2023-04-25T09:52:08;99646.66;;;24.52;32.62
74544;BME280;63016;55.030;38.710;2023-04-25T09:54:34;99636.78;;;24.47;32.55
74544;BME280;63016;55.030;38.710;2023-04-25T09:59:44;99644.81;;;24.63;32.79
74544;BME280;63016;55.030;38.710;2023-04-25T10:02:11;99648.25;;;24.63;32.94
74544;BME280;63016;55.030;38.710;2023-04-25T10:04:37;99644.81;;;24.68;32.75
74544;BME280;63016;55.030;38.710;2023-04-25T10:07:05;99641.06;;;24.69;32.17
74544;BME280;63016;55.030;38.710;2023-04-25T10:09:32;99639.72;;;24.61;31.81
74544;BME280;63016;55.030;38.710;2023-04-25T10:12:02;99638.88;;;24.45;32.18
74544;BME280;63016;55.030;38.710;2023-04-25T10:14:30;99634.91;;;24.48;32.64
74544;BME280;63016;55.030;38.710;2023-04-25T10:16:57;99632.25;;;24.53;32.52
74544;BME280;63016;55.030;38.710;2023-04-25T10:19:24;99628.00;;;24.62;32.41
74544;BME280;63016;55.030;38.710;2023-04-25T10:21:58;99618.94;;;24.73;32.44
74544;BME280;63016;55.030;38.710;2023-04-25T10:24:27;99607.75;;;24.76;32.41
74544;BME280;63016;55.030;38.710;2023-04-25T10:26:53;99617.06;;;24.79;32.18
74544;BME280;63016;55.030;38.710;2023-04-25T10:29:24;99605.59;;;24.78;32.23
74544;BME280;63016;55.030;38.710;2023-04-25T10:31:50;99614.41;;;24.84;32.09
74544;BME280;63016;55.030;38.710;2023-04-25T10:34:16;99600.25;;;24.88;32.56
74544;BME280;63016;55.030;38.710;2023-04-25T10:36:42;99593.84;;;24.95;32.22
74544;BME280;63016;55.030;38.710;2023-04-25T10:39:08;99609.06;;;25.04;31.96
74544;BME280;63016;55.030;38.710;2023-04-25T10:41:46;99595.47;;;25.06;32.26
74544;BME280;63016;55.030;38.710;2023-04-25T10:44:13;99595.97;;;25.03;31.61
74544;BME280;63016;55.030;38.710;2023-04-25T10:46:39;99576.22;;;24.94;31.92
74544;BME280;63016;55.030;38.710;2023-04-25T10:49:04;99593.31;;;24.98;31.51
74544;BME280;63016;55.030;38.710;2023-04-25T10:51:34;99581.31;;;24.95;31.85
74544;BME280;63016;55.030;38.710;2023-04-25T10:54:06;99577.31;;;24.93;31.82
74544;BME280;63016;55.030;38.710;2023-04-25T10:59:14;99565.84;;;24.92;31.99
74544;BME280;63016;55.030;38.710;2023-04-25T11:01:42;99564.47;;;24.95;31.73
74544;BME280;63016;55.030;38.710;2023-04-25T11:04:25;99558.63;;;25.03;32.04
74544;BME280;63016;55.030;38.710;2023-04-25T11:09:36;99550.38;;;25.09;31.74
74544;BME280;63016;55.030;38.710;2023-04-25T11:12:04;99546.38;;;25.07;31.30
74544;BME280;63016;55.030;38.710;2023-04-25T11:14:30;99547.94;;;24.93;31.72
74544;BME280;63016;55.030;38.710;2023-04-25T11:16:57;99546.09;;;24.93;31.80
74544;BME280;63016;55.030;38.710;2023-04-25T11:19:24;99538.88;;;24.94;31.63
74544;BME280;63016;55.030;38.710;2023-04-25T11:21:50;99534.63;;;24.87;31.43
74544;BME280;63016;55.030;38.710;2023-04-25T11:24:16;99531.66;;;24.89;31.42
74544;BME280;63016;55.030;38.710;2023-04-25T11:26:43;99532.47;;;24.84;31.58
74544;BME280;63016;55.030;38.710;2023-04-25T11:29:08;99527.69;;;24.76;31.31
74544;BME280;63016;55.030;38.710;2023-04-25T11:31:34;99518.63;;;24.77;31.74
74544;BME280;63016;55.030;38.710;2023-04-25T11:34:00;99509.81;;;24.77;31.68
74544;BME280;63016;55.030;38.710;2023-04-25T11:36:26;99507.94;;;24.82;31.35
74544;BME280;63016;55.030;38.710;2023-04-25T11:38:52;99509.53;;;24.88;31.61
74544;BME280;63016;55.030;38.710;2023-04-25T11:41:21;99504.72;;;24.96;31.74
74544;BME280;63016;55.030;38.710;2023-04-25T11:43:48;99496.69;;;25.06;31.76
74544;BME280;63016;55.030;38.710;2023-04-25T11:46:14;99496.16;;;25.14;31.63
74544;BME280;63016;55.030;38.710;2023-04-25T11:48:41;99487.31;;;25.19;31.86
74544;BME280;63016;55.030;38.710;2023-04-25T11:51:08;99472.97;;;25.09;31.64
74544;BME280;63016;55.030;38.710;2023-04-25T11:53:34;99472.13;;;25.09;31.62
74544;BME280;63016;55.030;38.710;2023-04-25T11:55:59;99479.59;;;25.17;31.53
74544;BME280;63016;55.030;38.710;2023-04-25T11:58:26;99468.38;;;25.20;31.71
74544;BME280;63016;55.030;38.710;2023-04-25T12:00:52;99464.09;;;25.24;31.31
74544;BME280;63016;55.030;38.710;2023-04-25T12:03:18;99462.25;;;25.20;31.16
74544;BME280;63016;55.030;38.710;2023-04-25T12:05:45;99463.56;;;25.22;31.49
74544;BME280;63016;55.030;38.710;2023-04-25T12:08:15;99456.59;;;25.26;31.04
74544;BME280;63016;55.030;38.710;2023-04-25T12:10:42;99444.06;;;25.22;31.20
74544;BME280;63016;55.030;38.710;2023-04-25T12:13:25;99435.22;;;25.31;31.75
74544;BME280;63016;55.030;38.710;2023-04-25T12:15:51;99428.53;;;25.39;31.20
74544;BME280;63016;55.030;38.710;2023-04-25T12:18:22;99441.03;;;25.49;31.15
74544;BME280;63016;55.030;38.710;2023-04-25T12:20:48;99426.63;;;25.45;31.10
74544;BME280;63016;55.030;38.710;2023-04-25T12:23:14;99421.53;;;25.43;30.77
74544;BME280;63016;55.030;38.710;2023-04-25T12:25:44;99414.69;;;25.27;30.77
74544;BME280;63016;55.030;38.710;2023-04-25T12:28:23;99418.22;;;25.12;30.73
74544;BME280;63016;55.030;38.710;2023-04-25T12:31:06;99413.19;;;24.95;31.12
74544;BME280;63016;55.030;38.710;2023-04-25T12:33:34;99410.00;;;24.88;31.32
74544;BME280;63016;55.030;38.710;2023-04-25T12:36:01;99406.53;;;24.82;30.67
74544;BME280;63016;55.030;38.710;2023-04-25T12:38:30;99391.63;;;24.71;31.01
74544;BME280;63016;55.030;38.710;2023-04-25T12:40:57;99386.56;;;24.65;30.82
74544;BME280;63016;55.030;38.710;2023-04-25T12:43:24;99387.66;;;24.53;30.83
74544;BME280;63016;55.030;38.710;2023-04-25T12:45:50;99382.59;;;24.31;30.74
74544;BME280;63016;55.030;38.710;2023-04-25T12:48:17;99374.59;;;24.11;31.57
74544;BME280;63016;55.030;38.710;2023-04-25T12:50:43;99374.88;;;24.04;31.58
74544;BME280;63016;55.030;38.710;2023-04-25T12:53:09;99367.69;;;24.05;31.44
74544;BME280;63016;55.030;38.710;2023-04-25T12:55:35;99369.81;;;24.08;31.39
74544;BME280;63016;55.030;38.710;2023-04-25T12:58:01;99367.13;;;24.03;31.53
74544;BME280;63016;55.030;38.710;2023-04-25T13:00:27;99361.81;;;24.03;31.59